createdAt,value
2016-10-13T08:10:05.443Z,68
2016-10-13T08:10:47.670Z,68
2016-10-13T08:16:30.966Z,72
2016-10-13T08:17:32.913Z,68
2016-10-13T08:18:31.728Z,68
2016-10-13T08:19:25.150Z,72
2016-10-13T08:20:17.820Z,64
2016-10-13T08:21:03.431Z,68
2016-10-13T08:21:54.715Z,68
2016-10-13T08:22:43.926Z,68
2016-10-13T08:23:35.521Z,68
2016-10-13T08:24:23.822Z,68
2016-10-13T08:25:06.184Z,72
2016-10-13T08:25:47.102Z,68
2016-10-13T08:26:28.361Z,68
2016-10-13T08:27:10.850Z,68
2016-10-13T08:27:59.193Z,68
2016-10-13T08:28:48.573Z,64
2016-10-13T08:29:44.888Z,64
2016-10-13T08:30:27.761Z,56
2016-10-13T08:31:13.651Z,72
2016-10-13T08:32:02.655Z,88
2016-10-13T08:32:53.685Z,92
2016-10-13T08:33:50.914Z,104
2016-10-13T08:34:44.136Z,84
2016-10-13T08:35:39.721Z,72
2016-10-13T08:36:26.242Z,60
2016-10-13T08:37:09.508Z,76
2016-10-13T08:37:56.610Z,68
2016-10-13T08:38:43.652Z,64
2016-10-13T08:39:27.528Z,72
2016-10-13T08:40:09.958Z,64
2016-10-13T08:40:51.359Z,80
2016-10-13T08:41:33.438Z,72
2016-10-13T08:42:16.613Z,80
2016-10-13T08:42:57.520Z,60
2016-10-13T08:43:38.759Z,68
2016-10-13T08:44:21.502Z,40
2016-10-13T08:45:07.608Z,96
2016-10-13T08:45:48.789Z,36
2016-10-13T08:46:29.954Z,44
2016-10-13T08:47:12.136Z,20
2016-10-13T08:47:53.744Z,20
2016-10-13T08:48:38.899Z,36
2016-10-13T08:49:20.634Z,28
2016-10-13T08:53:17.203Z,116
2016-10-13T08:54:01.080Z,36
2016-10-13T08:54:42.693Z,36
2016-10-13T08:55:23.763Z,44
2016-10-13T08:56:07.504Z,44
2016-10-13T08:56:54.098Z,84
2016-10-13T08:57:37.079Z,36
2016-10-13T08:58:21.400Z,196
2016-10-13T08:59:03.341Z,208
2016-10-13T08:59:45.759Z,204
2016-10-13T09:00:29.367Z,212
2016-10-13T09:01:11.476Z,212
2016-10-13T09:01:52.786Z,204
2016-10-13T09:02:33.391Z,220
2016-10-13T09:03:14.013Z,8
2016-10-13T09:05:43.852Z,8
2016-10-13T09:06:24.372Z,16
2016-10-13T09:07:05.105Z,12
2016-10-13T09:07:45.644Z,32
2016-10-13T09:08:26.396Z,48
2016-10-13T09:09:07.468Z,12
2016-10-13T09:09:49.108Z,36
2016-10-13T09:10:29.256Z,16
2016-10-13T09:11:10.069Z,12
2016-10-13T09:11:50.682Z,16
2016-10-13T09:12:31.236Z,60
2016-10-13T09:13:11.868Z,60
2016-10-13T09:13:54.332Z,60
2016-10-13T09:14:35.001Z,56
2016-10-13T09:15:15.575Z,56
2016-10-13T09:15:56.161Z,56
2016-10-13T09:16:39.233Z,52
2016-10-13T09:17:20.689Z,52
2016-10-13T09:18:06.062Z,40
2016-10-13T09:18:52.731Z,48
2016-10-13T09:19:36.907Z,52
2016-10-13T09:22:19.657Z,52
2016-10-13T09:23:00.374Z,52
2016-10-13T09:23:43.171Z,52
2016-10-13T09:24:27.987Z,52
2016-10-13T09:25:10.821Z,40
2016-10-13T09:25:51.445Z,168
2016-10-13T09:26:32.035Z,56
2016-10-13T09:27:13.336Z,32
2016-10-13T09:27:54.453Z,24
2016-10-13T09:28:35.174Z,40
2016-10-13T09:29:15.900Z,28
2016-10-13T09:29:57.473Z,24
2016-10-13T09:30:39.204Z,36
2016-10-13T09:31:21.321Z,32
2016-10-13T09:32:03.114Z,32
2016-10-13T09:32:44.673Z,40
2016-10-13T09:33:25.351Z,120
2016-10-13T09:34:07.450Z,20
2016-10-13T09:34:48.386Z,20
2016-10-13T09:35:29.673Z,36
2016-10-13T09:37:13.175Z,52
2016-10-13T09:37:53.761Z,104
2016-10-13T09:38:34.528Z,128
2016-10-13T09:39:16.115Z,132
2016-10-13T09:39:58.312Z,136
2016-10-13T09:40:40.169Z,128
2016-10-13T09:41:21.013Z,116
2016-10-13T09:42:01.647Z,112
2016-10-13T09:42:42.311Z,100
2016-10-13T09:43:22.925Z,8
2016-10-13T09:44:03.864Z,8
2016-10-13T09:44:44.804Z,4
2016-10-13T09:45:25.357Z,32
2016-10-13T09:46:06.189Z,32
2016-10-13T09:46:47.782Z,60
2016-10-13T09:47:28.400Z,56
2016-10-13T09:48:09.422Z,56
2016-10-13T09:48:51.030Z,68
2016-10-13T09:49:32.425Z,64
2016-10-13T09:50:14.676Z,36
2016-10-13T09:52:16.456Z,40
2016-10-13T09:52:57.421Z,24
2016-10-13T09:53:38.067Z,24
2016-10-13T09:54:18.802Z,36
2016-10-13T09:54:59.632Z,20
2016-10-13T09:55:40.357Z,20
2016-10-13T09:56:22.458Z,48
2016-10-13T09:57:03.275Z,48
2016-10-13T09:57:44.305Z,44
2016-10-13T09:58:25.527Z,44
2016-10-13T09:59:06.631Z,32
2016-10-13T09:59:47.289Z,44
2016-10-13T10:00:28.446Z,48
2016-10-13T10:01:09.099Z,32
2016-10-13T10:01:49.784Z,48
2016-10-13T10:02:30.683Z,48
2016-10-13T10:03:12.189Z,48
2016-10-13T10:03:52.832Z,48
2016-10-13T10:04:34.147Z,40
2016-10-13T10:05:14.935Z,44
2016-10-13T10:06:00.045Z,40
2016-10-13T10:06:41.003Z,44
2016-10-13T10:07:21.644Z,44
2016-10-13T10:08:03.872Z,36
2016-10-13T10:08:44.758Z,40
2016-10-13T10:09:25.368Z,32
2016-10-13T10:10:05.938Z,44
2016-10-13T10:10:46.562Z,44
2016-10-13T10:11:27.224Z,44
2016-10-13T10:12:09.109Z,40
2016-10-13T10:12:55.664Z,44
2016-10-13T10:13:36.216Z,40
2016-10-13T10:14:17.786Z,44
2016-10-13T10:14:58.975Z,48
2016-10-13T10:15:40.239Z,52
2016-10-13T10:16:21.883Z,48
2016-10-13T10:17:02.593Z,52
2016-10-13T10:17:43.804Z,52
2016-10-13T10:18:24.388Z,52
2016-10-13T10:19:08.343Z,56
2016-10-13T10:19:48.986Z,56
2016-10-13T10:20:29.455Z,52
2016-10-13T10:21:10.056Z,48
2016-10-13T10:21:50.653Z,52
2016-10-13T10:22:31.200Z,44
2016-10-13T10:23:11.796Z,48
2016-10-13T10:23:52.362Z,36
2016-10-13T10:24:33.841Z,28
2016-10-13T10:25:14.393Z,44
2016-10-13T10:25:54.996Z,40
2016-10-13T10:26:35.611Z,44
2016-10-13T10:27:16.410Z,44
2016-10-13T10:27:57.262Z,44
2016-10-13T10:28:39.894Z,48
2016-10-13T10:29:21.522Z,40
2016-10-13T10:30:01.611Z,44
